Map

Track Data

SID SEASON NUMBER BASIN SUBBASIN NAME ISO_TIME NATURE LAT LON WMO_WIND WMO_PRES WMO_AGENCY TRACK_TYPE DIST2LAND LANDFALL IFLAG USA_AGENCY USA_ATCF_ID USA_LAT USA_LON USA_RECORD USA_STATUS USA_WIND USA_PRES USA_SSHS USA_R34_NE USA_R34_SE USA_R34_SW USA_R34_NW USA_R50_NE USA_R50_SE USA_R50_SW USA_R50_NW USA_R64_NE USA_R64_SE USA_R64_SW USA_R64_NW USA_POCI USA_ROCI USA_RMW USA_EYE TOKYO_LAT TOKYO_LON TOKYO_GRADE TOKYO_WIND TOKYO_PRES TOKYO_R50_DIR TOKYO_R50_LONG TOKYO_R50_SHORT TOKYO_R30_DIR TOKYO_R30_LONG TOKYO_R30_SHORT TOKYO_LAND CMA_LAT CMA_LON CMA_CAT CMA_WIND CMA_PRES HKO_LAT HKO_LON HKO_CAT HKO_WIND HKO_PRES NEWDELHI_LAT NEWDELHI_LON NEWDELHI_GRADE NEWDELHI_WIND NEWDELHI_PRES NEWDELHI_CI NEWDELHI_DP NEWDELHI_POCI REUNION_LAT REUNION_LON REUNION_TYPE REUNION_WIND REUNION_PRES REUNION_TNUM REUNION_CI REUNION_RMW REUNION_R34_NE REUNION_R34_SE REUNION_R34_SW REUNION_R34_NW REUNION_R50_NE REUNION_R50_SE REUNION_R50_SW REUNION_R50_NW REUNION_R64_NE REUNION_R64_SE REUNION_R64_SW REUNION_R64_NW BOM_LAT BOM_LON BOM_TYPE BOM_WIND BOM_PRES BOM_TNUM BOM_CI BOM_RMW BOM_R34_NE BOM_R34_SE BOM_R34_SW BOM_R34_NW BOM_R50_NE BOM_R50_SE BOM_R50_SW BOM_R50_NW BOM_R64_NE BOM_R64_SE BOM_R64_SW BOM_R64_NW BOM_ROCI BOM_POCI BOM_EYE BOM_POS_METHOD BOM_PRES_METHOD NADI_LAT NADI_LON NADI_CAT NADI_WIND NADI_PRES WELLINGTON_LAT WELLINGTON_LON WELLINGTON_WIND WELLINGTON_PRES DS824_LAT DS824_LON DS824_STAGE DS824_WIND DS824_PRES TD9636_LAT TD9636_LON TD9636_STAGE TD9636_WIND TD9636_PRES TD9635_LAT TD9635_LON TD9635_WIND TD9635_PRES TD9635_ROCI NEUMANN_LAT NEUMANN_LON NEUMANN_CLASS NEUMANN_WIND NEUMANN_PRES MLC_LAT MLC_LON MLC_CLASS MLC_WIND MLC_PRES USA_GUST BOM_GUST BOM_GUST_PER REUNION_GUST REUNION_GUST_PER USA_SEAHGT USA_SEARAD_NE USA_SEARAD_SE USA_SEARAD_SW USA_SEARAD_NW STORM_SPEED STORM_DIR
1963334N09073 1963 112 NI AS NOT_NAMED 1963-11-29 18:00:00 TS 8.50000 72.8000 main 397 397 O________O____ jtwc_io IO151963 8.50000 72.8000 -1 8.50000 72.8000 TC 3 270
1963334N09073 1963 112 NI AS NOT_NAMED 1963-11-29 21:00:00 TS 8.50002 72.6550 main 408 408 P________P____ IO151963 8.50002 72.6550 -1 8.50002 72.6550 TC 3 270
1963334N09073 1963 112 NI AS NOT_NAMED 1963-11-30 00:00:00 TS 8.50000 72.5000 main 429 429 O________O____ jtwc_io IO151963 8.50000 72.5000 -1 8.50000 72.5000 TC 25 3 270
1963334N09073 1963 112 NI AS NOT_NAMED 1963-11-30 03:00:00 TS 8.49998 72.3200 main 451 451 P________PO___ IO151963 8.49997 72.3225 -1 8.49997 72.3225 TC 25 8.50000 72.3000 1 4 270
1963334N09073 1963 112 NI AS NOT_NAMED 1963-11-30 06:00:00 TS 8.49784 72.0897 main 472 472 O________OP___ jtwc_io IO151963 8.50000 72.1000 -1 8.50000 72.1000 TC 25 8.48917 72.0484 1 5 269
1963334N09073 1963 112 NI AS NOT_NAMED 1963-11-30 09:00:00 TS 8.49529 71.7993 main 504 504 P________PP___ IO151963 8.50004 71.8000 -1 8.50004 71.8000 TC 25 8.48261 71.7974 1 6 270
1963334N09073 1963 112 NI AS NOT_NAMED 1963-11-30 12:00:00 TS 8.49491 71.5159 main 537 537 O________OP___ jtwc_io IO151963 8.50000 71.5000 -1 8.50000 71.5000 TC 25 8.48474 71.5478 1 5 270
1963334N09073 1963 112 NI AS NOT_NAMED 1963-11-30 15:00:00 TS 8.49497 71.2950 main 558 558 P________PO___ IO151963 8.49245 71.2925 -1 8.49245 71.2925 TC 25 8.50000 71.3000 1 4 272
1963334N09073 1963 112 NI AS NOT_NAMED 1963-11-30 18:00:00 TS 8.51052 71.0852 main 580 580 O________OP___ jtwc_io IO151963 8.50000 71.1000 -1 8.50000 71.1000 TC 25 8.53155 71.0557 1 5 277
1963334N09073 1963 112 NI AS NOT_NAMED 1963-11-30 21:00:00 TS 8.54917 70.8400 main 612 611 P________PP___ IO151963 8.53501 70.8500 -1 8.53501 70.8500 TC 25 8.57749 70.8200 1 5 282
1963334N09073 1963 112 NI AS NOT_NAMED 1963-12-01 00:00:00 TS 8.61156 70.5998 main 631 631 O________OP___ jtwc_io IO151963 8.60000 70.6000 -1 8.60000 70.6000 TC 25 8.63468 70.5994 1 5 289
1963334N09073 1963 112 NI AS NOT_NAMED 1963-12-01 03:00:00 TS 8.69999 70.3900 main 642 642 P________PO___ IO151963 8.69999 70.3850 -1 8.69999 70.3850 TC 25 8.70000 70.4000 1 4 295
1963334N09073 1963 112 NI AS NOT_NAMED 1963-12-01 06:00:00 TS 8.78926 70.2054 main 654 654 O________OP___ jtwc_io IO151963 8.80000 70.2000 -1 8.80000 70.2000 TC 25 8.76777 70.2163 1 4 293
1963334N09073 1963 112 NI AS NOT_NAMED 1963-12-01 09:00:00 TS 8.84748 70.0417 main 672 666 P________PP___ IO151963 8.84999 70.0350 -1 8.84999 70.0350 TC 25 8.84245 70.0550 1 3 292
1963334N09073 1963 112 NI AS NOT_NAMED 1963-12-01 12:00:00 TS 8.90697 69.9054 main 675 675 O________OP___ jtwc_io IO151963 8.90000 69.9000 -1 8.90000 69.9000 TC 25 8.92091 69.9163 1 3 302
1963334N09073 1963 112 NI AS NOT_NAMED 1963-12-01 15:00:00 TS 9.00000 69.7900 main 679 679 P________PO___ IO151963 9.00000 69.7850 -1 9.00000 69.7850 TC 25 9.00000 69.8000 1 3 312
1963334N09073 1963 112 NI AS NOT_NAMED 1963-12-01 18:00:00 TS 9.08622 69.7079 main 683 683 O________OP___ jtwc_io IO151963 9.10000 69.7000 -1 9.10000 69.7000 TC 25 9.05867 69.7236 1 2 316
1963334N09073 1963 112 NI AS NOT_NAMED 1963-12-01 21:00:00 TS 9.13995 69.6599 main 683 683 P________PP___ IO151963 9.14999 69.6575 -1 9.14999 69.6575 TC 25 9.11989 69.6648 1 2 317
1963334N09073 1963 112 NI AS NOT_NAMED 1963-12-02 00:00:00 TS 9.19872 69.5995 main 688 688 O________OP___ jtwc_io IO151963 9.20000 69.6000 -1 9.20000 69.6000 TC 25 9.19616 69.5986 1 2 310
1963334N09073 1963 112 NI AS NOT_NAMED 1963-12-02 03:00:00 TS 9.28500 69.4817 main 692 692 P________PO___ IO151963 9.27750 69.4725 -1 9.27750 69.4725 TC 25 9.30000 69.5000 1 4 308
1963334N09073 1963 112 NI AS NOT_NAMED 1963-12-02 06:00:00 TS 9.41949 69.3134 main 707 702 O________OP___ jtwc_io IO151963 9.40000 69.3000 -1 9.40000 69.3000 TC 25 9.45846 69.3401 1 5 312
1963334N09073 1963 112 NI AS NOT_NAMED 1963-12-02 09:00:00 TS 9.60918 69.1201 main 716 711 P________PP___ IO151963 9.59250 69.1075 -1 9.59250 69.1075 TC 25 9.64253 69.1451 1 6 315
1963334N09073 1963 112 NI AS NOT_NAMED 1963-12-02 12:00:00 TS 9.81011 68.9092 main 726 720 O________OP___ jtwc_io IO151963 9.80000 68.9000 -1 9.80000 68.9000 TC 25 9.83033 68.9276 1 6 312
1963334N09073 1963 112 NI AS NOT_NAMED 1963-12-02 15:00:00 TS 9.97666 68.7000 main 735 735 P________PO___ IO151963 9.96499 68.7000 -1 9.96499 68.7000 TC 30 10.0000 68.7000 2 5 307
1963334N09073 1963 112 NI AS NOT_NAMED 1963-12-02 18:00:00 TS 10.0975 68.5209 main 750 750 O________OP___ jtwc_io IO151963 10.1000 68.5000 -1 10.1000 68.5000 TC 35 10.0925 68.5627 2 4 302
1963334N09073 1963 112 NI AS NOT_NAMED 1963-12-02 21:00:00 TS 10.1896 68.3554 main 756 756 P________PP___ IO151963 10.1999 68.3299 -1 10.1999 68.3299 TC 35 10.1689 68.4063 2 4 296
1963334N09073 1963 112 NI AS NOT_NAMED 1963-12-03 00:00:00 TS 10.2870 68.1239 main 782 782 O________OP___ jtwc_io IO151963 10.3000 68.1000 -1 10.3000 68.1000 TC 35 10.2609 68.1718 2 6 292
1963334N09073 1963 112 NI AS NOT_NAMED 1963-12-03 03:00:00 TS 10.4081 67.7981 main 808 808 P________PO___ IO151963 10.4122 67.7972 -1 10.4122 67.7972 TC 35 10.4000 67.8000 3 9 291
1963334N09073 1963 112 NI AS NOT_NAMED 1963-12-03 06:00:00 TS 10.6168 67.2584 main 853 853 O________OP___ jtwc_io IO151963 10.6000 67.3000 -1 10.6000 67.3000 TC 35 10.6504 67.1752 3 14 292
1963334N09073 1963 112 NI AS NOT_NAMED 1963-12-03 09:00:00 TS 10.9485 66.4600 main 928 928 P________PP___ IO151963 10.9505 66.4805 -1 10.9505 66.4805 TC 35 10.9445 66.4191 3 18 292
1963334N09073 1963 112 NI AS NOT_NAMED 1963-12-03 12:00:00 TS 11.2804 65.6094 main 994 994 O________OP___ jtwc_io IO151963 11.3000 65.6000 -1 11.3000 65.6000 TC 35 11.2411 65.6282 3 16 290
1963334N09073 1963 112 NI AS NOT_NAMED 1963-12-03 15:00:00 TS 11.4865 64.9265 main 1054 1054 P________PO___ IO151963 11.4797 64.9397 -1 11.4797 64.9397 TC 35 11.5000 64.9000 3 13 286
1963334N09073 1963 112 NI AS NOT_NAMED 1963-12-03 18:00:00 TS 11.6225 64.3807 main 1082 1026 O________OP___ jtwc_io IO151963 11.6000 64.4000 -1 11.6000 64.4000 TC 35 11.6674 64.3420 3 10 286
1963334N09073 1963 112 NI AS NOT_NAMED 1963-12-03 21:00:00 TS 11.7696 63.8964 main 1026 981 P________PP___ IO151963 11.7574 63.9125 -1 11.7574 63.9125 TC 35 11.7942 63.8644 3 9 288
1963334N09073 1963 112 NI AS NOT_NAMED 1963-12-04 00:00:00 TS 11.8996 63.4849 main 981 937 O________OP___ jtwc_io IO151963 11.9000 63.5000 -1 11.9000 63.5000 TC 35 11.8989 63.4546 3 8 287
1963334N09073 1963 112 NI AS NOT_NAMED 1963-12-04 03:00:00 TS 12.0000 63.1133 main 937 903 P________PO___ IO151963 11.9999 63.1199 -1 11.9999 63.1199 TC 35 12.0000 63.1000 3 7 287
1963334N09073 1963 112 NI AS NOT_NAMED 1963-12-04 06:00:00 TS 12.1069 62.7888 main 903 870 O________OP___ jtwc_io IO151963 12.1000 62.8000 -1 12.1000 62.8000 TC 35 12.1206 62.7664 3 6 293
1963334N09073 1963 112 NI AS NOT_NAMED 1963-12-04 09:00:00 TS 12.2473 62.5174 main 870 847 P________PP___ IO151963 12.2499 62.5350 -1 12.2499 62.5350 TC 35 12.2421 62.4823 3 6 299
1963334N09073 1963 112 NI AS NOT_NAMED 1963-12-04 12:00:00 TS 12.3892 62.2773 main 847 814 O________OP___ jtwc_io IO151963 12.4000 62.3000 -1 12.4000 62.3000 TC 35 12.3676 62.2320 3 5 297
1963334N09073 1963 112 NI AS NOT_NAMED 1963-12-04 15:00:00 TS 12.4950 62.0283 main 814 792 P________PO___ IO151963 12.4925 62.0424 -1 12.4925 62.0424 TC 35 12.5000 62.0000 3 5 296
1963334N09073 1963 112 NI AS NOT_NAMED 1963-12-04 18:00:00 TS 12.6155 61.7949 main 792 770 O________OP___ jtwc_io IO151963 12.6000 61.8000 -1 12.6000 61.8000 TC 35 12.6466 61.7848 3 5 306
1963334N09073 1963 112 NI AS NOT_NAMED 1963-12-04 21:00:00 TS 12.7998 61.6033 main 770 749 P________PP___ IO151963 12.7999 61.6150 -1 12.7999 61.6150 TC 35 12.7996 61.5798 3 5 313
1963334N09073 1963 112 NI AS NOT_NAMED 1963-12-05 00:00:00 TS 12.9843 61.3866 main 749 718 O________OP___ jtwc_io IO151963 13.0000 61.4000 -1 13.0000 61.4000 TC 35 12.9528 61.3598 3 6 301
1963334N09073 1963 112 NI AS NOT_NAMED 1963-12-05 03:00:00 TS 13.1050 61.0816 main 718 675 P________PO___ IO151963 13.1075 61.0724 -1 13.1075 61.0724 TC 35 13.1000 61.1000 3 7 289
1963334N09073 1963 112 NI AS NOT_NAMED 1963-12-05 06:00:00 TS 13.2108 60.7227 main 675 644 O________OP___ jtwc_io IO151963 13.2000 60.7000 -1 13.2000 60.7000 TC 35 13.2323 60.7681 3 7 290
1963334N09073 1963 112 NI AS NOT_NAMED 1963-12-05 09:00:00 TS 13.3525 60.3700 main 645 604 P________PP___ IO151963 13.3499 60.3575 -1 13.3499 60.3575 TC 35 13.3576 60.3949 3 8 292
1963334N09073 1963 112 NI AS NOT_NAMED 1963-12-05 12:00:00 TS 13.4930 59.9998 main 604 563 O________OP___ jtwc_io IO151963 13.5000 60.0000 -1 13.5000 60.0000 TC 35 13.4791 59.9993 3 8 288
1963334N09073 1963 112 NI AS NOT_NAMED 1963-12-05 15:00:00 TS 13.6000 59.5999 main 563 523 P________PO___ IO151963 13.6000 59.5999 -1 13.6000 59.5999 TC 35 13.6000 59.6000 3 8 285
1963334N09073 1963 112 NI AS NOT_NAMED 1963-12-05 18:00:00 TS 13.7016 59.2001 main 523 484 O________OP___ jtwc_io IO151963 13.7000 59.2000 -1 13.7000 59.2000 TC 35 13.7047 59.2004 3 8 287
1963334N09073 1963 112 NI AS NOT_NAMED 1963-12-05 21:00:00 TS 13.8325 58.8299 main 484 460 P________PP___ IO151963 13.8424 58.8425 -1 13.8424 58.8425 TC 35 13.8126 58.8047 3 8 292
1963334N09073 1963 112 NI AS NOT_NAMED 1963-12-06 00:00:00 TS 13.9797 58.4772 main 460 424 O________OP___ jtwc_io IO151963 14.0000 58.5000 -1 14.0000 58.5000 TC 35 13.9392 58.4317 3 7 292
1963334N09073 1963 112 NI AS NOT_NAMED 1963-12-06 03:00:00 TS 14.1184 58.1183 main 424 404 P________PO___ IO151963 14.1275 58.1274 -1 14.1275 58.1274 TC 35 14.1000 58.1000 3 7 297
1963334N09073 1963 112 NI AS NOT_NAMED 1963-12-06 06:00:00 TS 14.3141 57.8039 main 404 381 O________OP___ jtwc_io IO151963 14.3000 57.8000 -1 14.3000 57.8000 TC 35 14.3423 57.8118 3 7 312
1963334N09073 1963 112 NI AS NOT_NAMED 1963-12-06 09:00:00 TS 14.6049 57.5693 main 381 341 P________PP___ IO151963 14.5999 57.5700 -1 14.5999 57.5700 TC 35 14.6148 57.5678 3 7 325
1963334N09073 1963 112 NI AS NOT_NAMED 1963-12-06 12:00:00 TS 14.8933 57.3883 main 341 310 O________OP___ jtwc_io IO151963 14.9000 57.4000 -1 14.9000 57.4000 TC 35 14.8799 57.3649 3 6 326
1963334N09073 1963 112 NI AS NOT_NAMED 1963-12-06 15:00:00 TS 15.0917 57.2233 main 310 295 P________PO___ IO151963 15.0875 57.2349 -1 15.0875 57.2349 TC 35 15.1000 57.2000 3 4 317
1963334N09073 1963 112 NI AS NOT_NAMED 1963-12-06 18:00:00 TS 15.1907 57.0986 main 295 288 O________OP___ jtwc_io IO151963 15.2000 57.1000 -1 15.2000 57.1000 TC 35 15.1722 57.0958 3 3 304
1963334N09073 1963 112 NI AS NOT_NAMED 1963-12-06 21:00:00 TS 15.2298 57.0070 main 288 272 P________PP___ IO151963 15.2425 56.9999 -1 15.2425 56.9999 TC 35 15.2046 57.0213 3 2 298
1963334N09073 1963 112 NI AS NOT_NAMED 1963-12-07 00:00:00 TS 15.2866 56.9121 main 272 257 O________OP___ jtwc_io IO151963 15.3000 56.9000 -1 15.3000 56.9000 TC 35 15.2597 56.9362 3 3 313
1963334N09073 1963 112 NI AS NOT_NAMED 1963-12-07 03:00:00 TS 15.4316 56.7866 main 257 217 P________PO___ IO151963 15.4474 56.7798 -1 15.4474 56.7798 TC 35 15.4000 56.8000 3 5 323
1963334N09073 1963 112 NI AS NOT_NAMED 1963-12-07 06:00:00 TS 15.6886 56.5929 main 217 171 O________OP___ jtwc_io IO151963 15.7000 56.6000 -1 15.7000 56.6000 TC 35 15.6714 56.5823 3 8 324
1963334N09073 1963 112 NI AS NOT_NAMED 1963-12-07 09:00:00 TS 16.0615 56.3137 main 162 108 P________PP___ IO151963 16.0676 56.3279 -1 16.0676 56.3279 TC 35 16.0533 56.2948 3 10 324
1963334N09073 1963 112 NI AS NOT_NAMED 1963-12-07 12:00:00 TS 16.5043 55.9799 main 108 38 O________OP___ jtwc_io IO151963 16.5000 56.0000 -1 16.5000 56.0000 TC 35 16.5085 55.9598 3 12 324
1963334N09073 1963 112 NI AS NOT_NAMED 1963-12-07 15:00:00 NR 17.0000 55.6000 main 38 __________O___ IO151963 -1 TC 17.0000 55.6000 3 12 324

About IBTrACS Database

This database is a web-friendly format of International Best Track Archive for Climate Stewardship (IBTrACS), a global best track data archive curated by NOAA dating back to 1842.

Updated: 2021-10-21